createdAt,value
2023-05-06T00:00:56.037Z,7.97
2023-05-06T00:03:58.543Z,7.22
2023-05-06T00:07:01.102Z,8.63
2023-05-06T00:10:04.253Z,7.35
2023-05-06T00:13:06.512Z,8.35
2023-05-06T00:16:08.850Z,7.28
2023-05-06T00:19:11.001Z,6.80
2023-05-06T00:22:13.110Z,6.47
2023-05-06T00:25:15.379Z,6.05
2023-05-06T00:28:18.501Z,6.57
2023-05-06T00:31:20.651Z,7.18
2023-05-06T00:34:23.522Z,5.95
2023-05-06T00:37:25.658Z,5.78
2023-05-06T00:40:27.771Z,7.45
2023-05-06T00:43:29.957Z,7.15
2023-05-06T00:46:32.305Z,7.18
2023-05-06T00:49:34.620Z,6.25
2023-05-06T00:52:37.044Z,6.50
2023-05-06T00:55:40.754Z,5.45
2023-05-06T00:58:42.935Z,7.70
2023-05-06T01:01:45.058Z,6.32
2023-05-06T01:04:47.440Z,7.43
2023-05-06T01:07:58.491Z,7.80
2023-05-06T01:11:17.150Z,6.60
2023-05-06T01:14:53.065Z,6.32
2023-05-06T01:17:58.907Z,7.47
2023-05-06T01:21:02.081Z,7.60
2023-05-06T01:24:04.351Z,5.95
2023-05-06T01:27:08.243Z,5.45
2023-05-06T01:30:10.745Z,7.25
2023-05-06T01:33:38.705Z,7.70
2023-05-06T01:37:07.059Z,7.35
2023-05-06T01:40:10.308Z,10.73
2023-05-06T01:43:14.633Z,7.50
2023-05-06T01:46:20.402Z,8.65
2023-05-06T01:49:26.601Z,10.65
2023-05-06T01:52:29.026Z,9.95
2023-05-06T01:55:32.314Z,10.57
2023-05-06T01:58:34.615Z,10.50
2023-05-06T02:01:37.949Z,13.13
2023-05-06T02:04:40.105Z,11.13
2023-05-06T02:07:42.092Z,10.48
2023-05-06T02:10:45.090Z,10.40
2023-05-06T02:13:47.246Z,10.07
2023-05-06T02:16:49.239Z,8.10
2023-05-06T02:19:51.534Z,8.77
2023-05-06T02:22:53.726Z,9.05
2023-05-06T02:25:58.206Z,8.88
2023-05-06T02:29:00.554Z,12.23
2023-05-06T02:32:02.830Z,10.20
2023-05-06T02:35:06.394Z,8.63
2023-05-06T02:38:08.893Z,7.97
2023-05-06T02:41:11.046Z,8.30
2023-05-06T02:44:13.586Z,6.32
2023-05-06T02:47:16.119Z,8.32
2023-05-06T02:50:18.497Z,6.50
2023-05-06T02:53:20.652Z,6.22
2023-05-06T02:56:22.851Z,7.72
2023-05-06T02:59:24.961Z,6.78
2023-05-06T03:02:28.094Z,7.95
2023-05-06T03:05:30.288Z,6.72
2023-05-06T03:08:32.806Z,5.97
2023-05-06T03:11:35.752Z,7.32
2023-05-06T03:14:37.844Z,5.50
2023-05-06T03:17:40.274Z,4.95
2023-05-06T03:20:42.621Z,6.40
2023-05-06T03:23:46.486Z,6.32
2023-05-06T03:26:55.990Z,5.88
2023-05-06T03:30:02.156Z,6.82
2023-05-06T03:33:04.301Z,5.13
2023-05-06T03:36:06.887Z,5.65
2023-05-06T03:39:09.213Z,5.90
2023-05-06T03:42:11.373Z,5.45
2023-05-06T03:45:13.703Z,5.10
2023-05-06T03:48:15.980Z,4.43
2023-05-06T03:51:18.330Z,4.70
2023-05-06T03:54:20.694Z,5.78
2023-05-06T03:57:22.837Z,5.07
2023-05-06T04:00:25.540Z,6.63
2023-05-06T04:03:27.706Z,5.88
2023-05-06T04:06:29.866Z,4.25
2023-05-06T04:09:33.539Z,5.57
2023-05-06T04:12:36.031Z,4.50
2023-05-06T04:15:45.255Z,5.22
2023-05-06T04:18:58.519Z,4.97
2023-05-06T04:22:02.636Z,4.70
2023-05-06T04:25:05.583Z,6.47
2023-05-06T04:28:07.637Z,6.47
2023-05-06T04:31:10.706Z,6.85
2023-05-06T04:34:12.839Z,4.75
2023-05-06T04:37:15.451Z,5.85
2023-05-06T04:40:18.055Z,5.50
2023-05-06T04:43:20.216Z,5.38
2023-05-06T04:46:23.892Z,4.55
2023-05-06T04:49:26.297Z,5.28
2023-05-06T04:52:28.592Z,5.82
2023-05-06T04:55:30.828Z,5.80
2023-05-06T04:58:33.579Z,5.97
2023-05-06T05:01:36.283Z,5.57
2023-05-06T05:04:38.578Z,6.05
2023-05-06T05:07:40.724Z,5.18
2023-05-06T05:10:46.037Z,5.28
2023-05-06T05:13:48.148Z,4.82
2023-05-06T05:16:50.373Z,6.05
2023-05-06T05:19:53.005Z,6.20
2023-05-06T05:22:55.345Z,4.88
2023-05-06T05:25:57.429Z,6.25
2023-05-06T05:28:59.620Z,7.68
2023-05-06T05:32:02.660Z,7.15
2023-05-06T05:35:05.481Z,7.25
2023-05-06T05:38:07.576Z,5.43
2023-05-06T05:41:09.807Z,6.03
2023-05-06T05:44:18.834Z,4.80
2023-05-06T05:47:20.857Z,4.60
2023-05-06T05:50:23.332Z,5.78
2023-05-06T05:53:25.929Z,6.07
2023-05-06T05:56:28.156Z,6.10
2023-05-06T05:59:30.242Z,6.03
2023-05-06T06:02:34.666Z,5.72
2023-05-06T06:05:37.450Z,5.05
2023-05-06T06:08:39.916Z,5.13
2023-05-06T06:11:42.220Z,5.72
2023-05-06T06:14:48.373Z,5.72
2023-05-06T06:17:50.565Z,6.75
2023-05-06T06:20:53.470Z,6.32
2023-05-06T06:23:55.787Z,6.38
2023-05-06T06:26:58.108Z,6.68
2023-05-06T06:30:00.193Z,5.78
2023-05-06T06:33:02.535Z,4.80
2023-05-06T06:36:04.711Z,5.55
2023-05-06T06:39:06.989Z,5.88
2023-05-06T06:42:09.028Z,5.78
2023-05-06T06:45:11.932Z,5.43
2023-05-06T06:48:14.593Z,5.03
2023-05-06T06:51:16.740Z,5.78
2023-05-06T06:54:19.082Z,6.57
2023-05-06T06:57:21.178Z,6.63
2023-05-06T07:00:23.399Z,4.40
2023-05-06T07:03:25.589Z,5.97
2023-05-06T07:06:27.924Z,5.63
2023-05-06T07:09:29.960Z,5.45
2023-05-06T07:12:32.104Z,5.13
2023-05-06T07:15:34.167Z,6.68
2023-05-06T07:18:36.562Z,5.43
2023-05-06T07:21:38.658Z,4.07
2023-05-06T07:24:40.933Z,4.95
2023-05-06T07:27:43.212Z,5.28
2023-05-06T07:30:45.944Z,5.22
2023-05-06T07:33:48.414Z,5.15
2023-05-06T07:36:50.724Z,4.15
2023-05-06T07:39:52.742Z,4.55
2023-05-06T07:42:54.839Z,4.22
2023-05-06T07:46:02.742Z,4.55
2023-05-06T07:49:04.972Z,4.47
2023-05-06T07:52:07.039Z,4.57
2023-05-06T07:55:10.337Z,5.43
2023-05-06T07:58:12.661Z,3.72
2023-05-06T08:01:14.770Z,3.75
2023-05-06T08:04:17.434Z,5.78
2023-05-06T08:07:20.083Z,4.97
2023-05-06T08:10:25.035Z,4.85
2023-05-06T08:13:28.283Z,5.10
2023-05-06T08:16:30.434Z,5.63
2023-05-06T08:19:32.689Z,4.75
2023-05-06T08:22:34.804Z,4.32
2023-05-06T08:25:36.826Z,5.22
2023-05-06T08:28:38.880Z,5.80
2023-05-06T08:31:40.916Z,4.22
2023-05-06T08:34:43.027Z,4.20
2023-05-06T08:37:45.300Z,3.65
2023-05-06T08:40:49.420Z,3.85
2023-05-06T08:43:54.030Z,3.67
2023-05-06T08:46:56.334Z,4.15
2023-05-06T08:49:58.693Z,4.85
2023-05-06T08:53:01.934Z,4.43
2023-05-06T08:56:08.770Z,4.15
2023-05-06T08:59:13.831Z,4.25
2023-05-06T09:02:15.955Z,3.88
2023-05-06T09:05:19.037Z,4.70
2023-05-06T09:08:21.504Z,3.92
2023-05-06T09:11:28.646Z,3.95
2023-05-06T09:14:31.000Z,4.72
2023-05-06T09:17:33.753Z,4.32
2023-05-06T09:20:40.357Z,4.70
2023-05-06T09:23:42.598Z,4.20
2023-05-06T09:26:45.903Z,4.10
2023-05-06T09:30:21.006Z,4.10
2023-05-06T09:33:23.288Z,4.50
2023-05-06T09:36:27.691Z,4.97
2023-05-06T09:39:29.980Z,3.28
2023-05-06T09:42:32.529Z,4.47
2023-05-06T09:45:35.433Z,2.80
2023-05-06T09:48:37.973Z,3.83
2023-05-06T09:51:42.648Z,3.42
2023-05-06T09:54:47.039Z,3.38
2023-05-06T09:57:50.670Z,2.80
2023-05-06T10:00:54.003Z,3.70
2023-05-06T10:03:58.286Z,4.40
2023-05-06T10:07:01.741Z,3.30
2023-05-06T10:10:07.144Z,3.25
2023-05-06T10:13:10.149Z,2.50
2023-05-06T10:16:14.609Z,2.70
2023-05-06T10:19:23.253Z,3.50
2023-05-06T10:23:02.528Z,3.53
2023-05-06T10:26:10.662Z,4.22
2023-05-06T10:29:14.179Z,2.72
2023-05-06T10:32:17.962Z,2.92
2023-05-06T10:35:46.840Z,2.67
2023-05-06T10:38:56.777Z,1.92
2023-05-06T10:41:59.053Z,2.75
2023-05-06T10:45:05.947Z,2.28
2023-05-06T10:48:09.118Z,2.75
2023-05-06T10:51:17.084Z,2.55
2023-05-06T10:54:19.071Z,2.50
2023-05-06T10:57:26.855Z,2.53
2023-05-06T11:00:34.553Z,2.88
2023-05-06T11:03:36.949Z,2.70
2023-05-06T11:06:47.989Z,2.60
2023-05-06T11:09:57.211Z,2.67
2023-05-06T11:13:19.333Z,2.30
2023-05-06T11:16:47.409Z,2.65
2023-05-06T11:19:49.502Z,2.25
2023-05-06T11:22:52.947Z,2.53
2023-05-06T11:25:58.478Z,2.03
2023-05-06T11:29:02.674Z,1.70
2023-05-06T11:32:19.283Z,3.22
2023-05-06T11:35:23.066Z,2.63
2023-05-06T11:38:46.430Z,2.20
2023-05-06T11:41:48.873Z,2.63
2023-05-06T11:44:53.350Z,2.88
2023-05-06T11:47:55.569Z,2.97
2023-05-06T11:50:58.009Z,2.95
2023-05-06T11:54:07.763Z,2.53
2023-05-06T11:57:10.380Z,3.10
2023-05-06T12:00:13.517Z,3.60
2023-05-06T12:03:15.817Z,2.60
2023-05-06T12:06:19.248Z,2.75
2023-05-06T12:09:23.068Z,2.63
2023-05-06T12:12:27.651Z,2.87
2023-05-06T12:15:30.484Z,2.88
2023-05-06T12:18:33.137Z,2.88
2023-05-06T12:21:38.584Z,3.33
2023-05-06T12:24:41.632Z,3.30
2023-05-06T12:27:45.874Z,3.08
2023-05-06T12:30:48.364Z,3.22
2023-05-06T12:33:50.781Z,3.25
2023-05-06T12:36:53.018Z,4.25
2023-05-06T12:39:58.446Z,3.00
2023-05-06T12:43:01.512Z,3.13
2023-05-06T12:46:08.070Z,2.75
2023-05-06T12:49:10.441Z,2.47
2023-05-06T12:52:12.604Z,4.57
2023-05-06T12:55:14.723Z,3.85
2023-05-06T12:58:19.099Z,3.42
2023-05-06T13:01:22.680Z,3.92
2023-05-06T13:04:25.073Z,2.88
2023-05-06T13:07:27.445Z,3.42
2023-05-06T13:10:29.526Z,3.38
2023-05-06T13:13:31.652Z,4.45
2023-05-06T13:16:35.426Z,3.53
2023-05-06T13:19:37.774Z,4.05
2023-05-06T13:22:53.261Z,3.30
2023-05-06T13:26:04.095Z,4.07
2023-05-06T13:29:07.493Z,3.45
2023-05-06T13:32:09.669Z,3.50
2023-05-06T13:35:12.062Z,4.10
2023-05-06T13:38:14.420Z,3.30
2023-05-06T13:41:16.624Z,4.70
2023-05-06T13:44:22.402Z,8.50
2023-05-06T13:47:25.349Z,4.05
2023-05-06T13:50:27.444Z,4.38
2023-05-06T13:53:30.165Z,9.68
2023-05-06T13:56:34.275Z,12.63
2023-05-06T13:59:36.374Z,8.13
2023-05-06T14:02:39.103Z,3.67
2023-05-06T14:05:41.666Z,6.20
2023-05-06T14:08:43.824Z,4.43
2023-05-06T14:11:46.164Z,6.65
2023-05-06T14:14:48.411Z,4.32
2023-05-06T14:17:50.508Z,4.00
2023-05-06T14:20:52.701Z,2.75
2023-05-06T14:23:54.881Z,2.75
2023-05-06T14:26:57.083Z,2.47
2023-05-06T14:29:59.627Z,2.58
2023-05-06T14:33:02.075Z,3.20
2023-05-06T14:36:04.950Z,2.50
2023-05-06T14:39:07.707Z,2.70
2023-05-06T14:42:10.407Z,3.58
2023-05-06T14:45:13.715Z,3.45
2023-05-06T14:48:16.156Z,2.55
2023-05-06T14:51:18.460Z,2.53
2023-05-06T14:54:20.778Z,2.95
2023-05-06T14:57:23.965Z,3.22
2023-05-06T15:00:27.934Z,3.17
2023-05-06T15:03:30.488Z,3.42
2023-05-06T15:06:33.674Z,2.65
2023-05-06T15:09:35.862Z,2.88
2023-05-06T15:12:38.057Z,2.70
2023-05-06T15:15:40.810Z,3.42
2023-05-06T15:18:45.176Z,4.60
2023-05-06T15:21:47.543Z,2.43
2023-05-06T15:24:53.376Z,4.75
2023-05-06T15:27:55.699Z,3.55
2023-05-06T15:30:57.883Z,3.40
2023-05-06T15:34:00.727Z,3.65
2023-05-06T15:37:03.120Z,3.30
2023-05-06T15:40:10.818Z,3.20
2023-05-06T15:43:17.815Z,3.70
2023-05-06T15:46:29.305Z,3.72
2023-05-06T15:52:36.963Z,3.45
2023-05-06T15:55:46.435Z,4.20
2023-05-06T15:58:51.626Z,3.90
2023-05-06T16:04:59.683Z,3.97
2023-05-06T16:08:01.894Z,4.88
2023-05-06T16:11:05.905Z,4.77
2023-05-06T16:14:08.080Z,4.50
2023-05-06T16:17:10.150Z,3.17
2023-05-06T16:20:13.026Z,3.25
2023-05-06T16:23:16.496Z,4.90
2023-05-06T16:26:18.763Z,4.18
2023-05-06T16:29:21.093Z,5.45
2023-05-06T16:32:23.778Z,5.28
2023-05-06T16:35:26.152Z,4.63
2023-05-06T16:38:29.232Z,5.13
2023-05-06T16:41:32.532Z,3.88
2023-05-06T16:44:37.570Z,5.25
2023-05-06T16:47:40.213Z,5.70
2023-05-06T16:50:43.110Z,4.70
2023-05-06T16:53:45.279Z,5.68
2023-05-06T16:56:52.436Z,4.47
2023-05-06T16:59:55.415Z,4.82
2023-05-06T17:02:57.851Z,4.93
2023-05-06T17:06:00.364Z,6.03
2023-05-06T17:09:02.470Z,5.50
2023-05-06T17:12:05.163Z,4.72
2023-05-06T17:15:08.270Z,4.22
2023-05-06T17:18:10.843Z,4.27
2023-05-06T17:21:13.119Z,4.28
2023-05-06T17:24:15.243Z,5.45
2023-05-06T17:27:20.238Z,6.03
2023-05-06T17:30:22.860Z,6.45
2023-05-06T17:33:25.168Z,6.20
2023-05-06T17:36:27.663Z,4.30
2023-05-06T17:39:29.717Z,4.75
2023-05-06T17:42:31.808Z,7.30
2023-05-06T17:45:33.973Z,4.10
2023-05-06T17:48:36.248Z,6.25
2023-05-06T17:51:38.407Z,5.00
2023-05-06T17:54:40.605Z,5.03
2023-05-06T17:57:42.971Z,4.97
2023-05-06T18:00:45.574Z,5.72
2023-05-06T18:03:47.839Z,6.32
2023-05-06T18:06:49.991Z,3.05
2023-05-06T18:09:52.345Z,5.65
2023-05-06T18:12:55.640Z,5.07
2023-05-06T18:15:58.165Z,5.78
2023-05-06T18:19:04.855Z,5.50
2023-05-06T18:22:07.021Z,6.22
2023-05-06T18:25:10.019Z,5.78
2023-05-06T18:28:12.673Z,5.07
2023-05-06T18:31:15.215Z,5.72
2023-05-06T18:34:20.111Z,7.03
2023-05-06T18:37:22.197Z,5.72
2023-05-06T18:40:24.294Z,7.35
2023-05-06T18:43:26.349Z,5.47
2023-05-06T18:46:28.818Z,7.32
2023-05-06T18:49:31.558Z,4.55
2023-05-06T18:52:36.136Z,5.50
2023-05-06T18:55:38.228Z,5.90
2023-05-06T18:58:40.775Z,6.57
2023-05-06T19:01:42.880Z,5.88
2023-05-06T19:04:45.047Z,5.70
2023-05-06T19:07:47.092Z,6.13
2023-05-06T19:10:49.569Z,6.45
2023-05-06T19:13:52.492Z,6.38
2023-05-06T19:16:54.773Z,6.70
2023-05-06T19:19:57.100Z,5.68
2023-05-06T19:22:59.355Z,7.85
2023-05-06T19:26:01.539Z,6.18
2023-05-06T19:29:04.705Z,7.47
2023-05-06T19:32:06.854Z,6.43
2023-05-06T19:35:09.692Z,6.82
2023-05-06T19:38:12.000Z,7.97
2023-05-06T19:41:14.155Z,6.93
2023-05-06T19:44:16.272Z,7.63
2023-05-06T19:47:18.328Z,9.18
2023-05-06T19:50:20.696Z,7.88
2023-05-06T19:53:24.096Z,9.10
2023-05-06T19:56:26.168Z,8.23
2023-05-06T19:59:28.491Z,8.00
2023-05-06T20:02:33.066Z,6.55
2023-05-06T20:05:36.331Z,9.20
2023-05-06T20:08:38.420Z,9.45
2023-05-06T20:11:40.574Z,7.35
2023-05-06T20:14:42.684Z,8.55
2023-05-06T20:17:45.051Z,7.60
2023-05-06T20:20:47.401Z,9.68
2023-05-06T20:23:49.894Z,8.27
2023-05-06T20:26:52.132Z,9.40
2023-05-06T20:29:54.303Z,9.57
2023-05-06T20:32:56.513Z,8.32
2023-05-06T20:35:58.754Z,8.57
2023-05-06T20:39:01.153Z,8.40
2023-05-06T20:42:03.379Z,8.63
2023-05-06T20:45:06.247Z,9.73
2023-05-06T20:48:08.431Z,8.57
2023-05-06T20:51:10.818Z,8.60
2023-05-06T20:54:13.158Z,8.57
2023-05-06T20:57:16.602Z,8.38
2023-05-06T21:00:19.458Z,8.57
2023-05-06T21:03:21.689Z,8.77
2023-05-06T21:06:23.983Z,8.45
2023-05-06T21:09:29.502Z,8.02
2023-05-06T21:12:33.061Z,8.20
2023-05-06T21:15:35.536Z,8.20
2023-05-06T21:18:37.659Z,8.57
2023-05-06T21:21:40.008Z,8.98
2023-05-06T21:24:42.125Z,9.23
2023-05-06T21:27:45.225Z,9.32
2023-05-06T21:30:47.533Z,9.25
2023-05-06T21:33:55.017Z,8.75
2023-05-06T21:36:57.842Z,7.55
2023-05-06T21:40:02.824Z,7.90
2023-05-06T21:43:05.022Z,9.05
2023-05-06T21:46:07.135Z,8.40
2023-05-06T21:49:09.385Z,10.48
2023-05-06T21:52:11.521Z,10.40
2023-05-06T21:55:13.966Z,9.35
2023-05-06T21:58:16.067Z,10.18
2023-05-06T22:01:19.465Z,9.00
2023-05-06T22:04:21.818Z,6.05
2023-05-06T22:07:24.012Z,9.13
2023-05-06T22:10:26.477Z,9.20
2023-05-06T22:13:28.686Z,7.82
2023-05-06T22:16:30.842Z,8.93
2023-05-06T22:19:32.975Z,11.00
2023-05-06T22:22:35.469Z,8.60
2023-05-06T22:25:38.266Z,7.50
2023-05-06T22:28:40.421Z,8.52
2023-05-06T22:31:42.684Z,6.82
2023-05-06T22:34:45.033Z,8.05
2023-05-06T22:37:47.317Z,8.98
2023-05-06T22:40:49.449Z,7.82
2023-05-06T22:43:51.605Z,7.47
2023-05-06T22:46:54.979Z,9.00
2023-05-06T22:49:57.357Z,6.78
2023-05-06T22:53:04.824Z,7.50
2023-05-06T22:56:12.733Z,6.88
2023-05-06T22:59:15.045Z,7.00
2023-05-06T23:02:17.272Z,7.82
2023-05-06T23:05:19.364Z,6.30
2023-05-06T23:08:21.652Z,6.10
2023-05-06T23:11:23.729Z,4.60
2023-05-06T23:14:25.923Z,5.63
2023-05-06T23:17:28.060Z,5.97
2023-05-06T23:20:30.336Z,5.68
2023-05-06T23:23:33.089Z,6.20
2023-05-06T23:26:35.300Z,5.28
2023-05-06T23:29:37.375Z,6.57
2023-05-06T23:32:40.099Z,6.43
2023-05-06T23:35:42.242Z,5.95
2023-05-06T23:38:44.510Z,4.88
2023-05-06T23:41:46.523Z,4.95
2023-05-06T23:44:51.437Z,6.97
2023-05-06T23:47:54.458Z,5.43
2023-05-06T23:50:56.668Z,4.45
2023-05-06T23:53:58.721Z,4.07
2023-05-06T23:57:03.110Z,3.80
